Terminal Aerodrome Forecast
Issued by NWS Buffalo, NY

Home | Current Version | Previous Version | Text Only | Print | Product List | Glossary On
Versions: 1 2 3 4 5 6 7 8 9 10 11 12 13 14 15 16 17 18 19 20 21 22 23 24 25 26
000
FTUS41 KBUF 291100
TAFROC
TAF
KROC 291124Z 2912/3012 26006KT P6SM OVC050
     FM291400 32008KT P6SM BKN050
     FM292000 32009KT P6SM BKN140
     FM300200 25004KT P6SM SCT140
     FM300500 28004KT P6SM BKN050
     FM300800 36008KT P6SM BKN050=

USA.gov is the U.S. government's official web portal to all federal, state and local government web resources and services.